This is the latest recevied weather packets stored in our database for station/object WB8SKP-WX. If no packets are shown the sender has not sent any weather packets the latest 10 day(s).
| Time | Temp. | Humidity | Pressure | Rain* | Wind** | Luminosity | Snow |
|---|---|---|---|---|---|---|---|
| 1777016609 | 17.78° C | 76% | 991.1 hPa | 0 mm | - | - | - |
| 1777015409 | 17.78° C | 80% | 991.1 hPa | 0 mm | - | - | - |
| 1777014179 | 17.78° C | 79% | 991.3 hPa | 0 mm | - | - | - |
| 1777012979 | 17.78° C | 80% | 991.6 hPa | 0 mm | - | - | - |
| 1777011749 | 17.78° C | 80% | 991.8 hPa | 0 mm | - | - | - |
| 1777010549 | 17.78° C | 80% | 991.9 hPa | 0 mm | - | - | - |
| 1777009349 | 17.78° C | 80% | 992 hPa | 0 mm | - | - | - |
| 1777008119 | 17.78° C | 81% | 992.1 hPa | 0 mm | - | - | - |
| 1777006919 | 17.78° C | 83% | 992.2 hPa | 0 mm | - | - | - |
| 1777005719 | 18.33° C | 82% | 992.4 hPa | 0 mm | - | - | - |
| 1777004519 | 18.33° C | 82% | 992.3 hPa | 0 mm | - | - | - |
| 1777003289 | 18.33° C | 81% | 992.3 hPa | 0 mm | - | - | - |
| 1777002089 | 18.89° C | 78% | 992.2 hPa | 0 mm | - | - | - |
| 1777000889 | 19.44° C | 76% | 992.1 hPa | 0 mm | - | - | - |
| 1776999659 | 19.44° C | 76% | 991.9 hPa | 0 mm | - | - | - |
| 1776998429 | 19.44° C | 75% | 992 hPa | 0 mm | - | - | - |
| 1776997229 | 20° C | 73% | 992.1 hPa | 0 mm | - | - | - |
| 1776996029 | 20° C | 74% | 992.1 hPa | 0 mm | - | - | - |
| 1776994829 | 19.44° C | 74% | 992.1 hPa | 0 mm | - | - | - |
| 1776993599 | 20° C | 75% | 992.2 hPa | 0 mm | - | - | - |
| 1776992399 | 21.11° C | 70% | 992.3 hPa | 0 mm | - | - | - |
| 1776991199 | 22.22° C | 65% | 992.3 hPa | 0 mm | - | - | - |
| 1776989999 | 23.33° C | 61% | 992.3 hPa | 0 mm | - | - | - |
* Rain latest hour (hover to see other rain measurements)
** Current wind speed in m/s (hover to see current wind gust speed)